sensor_id;sensor_type;location;lat;lon;timestamp;P1;durP1;ratioP1;P2;durP2;ratioP2
25824;SDS011;13658;44.534;18.694;2022-09-20T00:01:19;58.08;;;27.38;;
25824;SDS011;13658;44.534;18.694;2022-09-20T00:03:50;53.22;;;26.25;;
25824;SDS011;13658;44.534;18.694;2022-09-20T00:06:19;47.72;;;23.40;;
25824;SDS011;13658;44.534;18.694;2022-09-20T00:08:47;48.55;;;22.92;;
25824;SDS011;13658;44.534;18.694;2022-09-20T00:11:17;41.92;;;18.92;;
25824;SDS011;13658;44.534;18.694;2022-09-20T00:13:46;47.38;;;23.23;;
25824;SDS011;13658;44.534;18.694;2022-09-20T00:16:14;43.40;;;23.13;;
25824;SDS011;13658;44.534;18.694;2022-09-20T00:18:43;45.47;;;22.40;;
25824;SDS011;13658;44.534;18.694;2022-09-20T00:21:17;47.50;;;21.52;;
25824;SDS011;13658;44.534;18.694;2022-09-20T00:23:45;38.75;;;19.20;;
25824;SDS011;13658;44.534;18.694;2022-09-20T00:26:11;35.75;;;19.05;;
25824;SDS011;13658;44.534;18.694;2022-09-20T00:28:38;38.05;;;19.20;;
25824;SDS011;13658;44.534;18.694;2022-09-20T00:31:04;42.45;;;20.20;;
25824;SDS011;13658;44.534;18.694;2022-09-20T00:33:32;44.55;;;20.67;;
25824;SDS011;13658;44.534;18.694;2022-09-20T00:36:17;38.63;;;20.30;;
25824;SDS011;13658;44.534;18.694;2022-09-20T00:38:42;42.97;;;21.90;;
25824;SDS011;13658;44.534;18.694;2022-09-20T00:41:09;47.50;;;21.67;;
25824;SDS011;13658;44.534;18.694;2022-09-20T00:43:39;36.13;;;19.02;;
25824;SDS011;13658;44.534;18.694;2022-09-20T00:46:18;29.98;;;16.58;;
25824;SDS011;13658;44.534;18.694;2022-09-20T00:48:48;30.73;;;15.88;;
25824;SDS011;13658;44.534;18.694;2022-09-20T00:51:20;31.90;;;15.90;;
25824;SDS011;13658;44.534;18.694;2022-09-20T00:53:53;31.33;;;15.23;;
25824;SDS011;13658;44.534;18.694;2022-09-20T00:56:24;29.65;;;16.02;;
25824;SDS011;13658;44.534;18.694;2022-09-20T00:59:16;33.78;;;15.43;;
25824;SDS011;13658;44.534;18.694;2022-09-20T01:01:51;33.15;;;16.98;;
25824;SDS011;13658;44.534;18.694;2022-09-20T01:04:21;34.30;;;17.63;;
25824;SDS011;13658;44.534;18.694;2022-09-20T01:06:50;31.45;;;17.25;;
25824;SDS011;13658;44.534;18.694;2022-09-20T01:09:18;32.65;;;16.85;;
25824;SDS011;13658;44.534;18.694;2022-09-20T01:11:44;35.00;;;19.08;;
25824;SDS011;13658;44.534;18.694;2022-09-20T01:14:12;35.05;;;19.17;;
25824;SDS011;13658;44.534;18.694;2022-09-20T01:16:43;32.40;;;17.40;;
25824;SDS011;13658;44.534;18.694;2022-09-20T01:19:13;34.20;;;17.27;;
25824;SDS011;13658;44.534;18.694;2022-09-20T01:21:52;34.40;;;17.73;;
25824;SDS011;13658;44.534;18.694;2022-09-20T01:24:23;28.35;;;15.57;;
25824;SDS011;13658;44.534;18.694;2022-09-20T01:30:08;33.88;;;16.73;;
25824;SDS011;13658;44.534;18.694;2022-09-20T01:35:09;28.90;;;15.10;;
25824;SDS011;13658;44.534;18.694;2022-09-20T01:37:40;27.15;;;14.45;;
25824;SDS011;13658;44.534;18.694;2022-09-20T01:40:12;27.67;;;14.50;;
25824;SDS011;13658;44.534;18.694;2022-09-20T01:45:37;31.73;;;16.83;;
25824;SDS011;13658;44.534;18.694;2022-09-20T01:59:15;31.77;;;15.73;;
25824;SDS011;13658;44.534;18.694;2022-09-20T02:02:15;34.17;;;16.27;;
25824;SDS011;13658;44.534;18.694;2022-09-20T02:13:03;33.75;;;18.15;;
25824;SDS011;13658;44.534;18.694;2022-09-20T02:26:38;37.67;;;19.33;;
25824;SDS011;13658;44.534;18.694;2022-09-20T02:29:31;36.85;;;18.58;;
25824;SDS011;13658;44.534;18.694;2022-09-20T02:32:20;37.17;;;17.90;;
25824;SDS011;13658;44.534;18.694;2022-09-20T02:35:00;31.30;;;17.13;;
25824;SDS011;13658;44.534;18.694;2022-09-20T02:43:50;31.27;;;15.48;;
25824;SDS011;13658;44.534;18.694;2022-09-20T02:46:34;32.58;;;16.27;;
25824;SDS011;13658;44.534;18.694;2022-09-20T02:54:59;36.10;;;16.85;;
25824;SDS011;13658;44.534;18.694;2022-09-20T03:00:23;33.67;;;17.08;;
25824;SDS011;13658;44.534;18.694;2022-09-20T03:03:09;34.83;;;17.15;;
25824;SDS011;13658;44.534;18.694;2022-09-20T03:06:39;36.53;;;17.05;;
25824;SDS011;13658;44.534;18.694;2022-09-20T03:09:10;40.58;;;17.38;;
25824;SDS011;13658;44.534;18.694;2022-09-20T03:18:16;33.65;;;14.85;;
25824;SDS011;13658;44.534;18.694;2022-09-20T03:21:00;30.42;;;14.40;;
25824;SDS011;13658;44.534;18.694;2022-09-20T03:59:57;52.67;;;16.33;;
25824;SDS011;13658;44.534;18.694;2022-09-20T04:06:08;43.50;;;16.60;;
25824;SDS011;13658;44.534;18.694;2022-09-20T04:14:51;45.13;;;18.17;;
25824;SDS011;13658;44.534;18.694;2022-09-20T04:20:14;40.63;;;18.13;;
25824;SDS011;13658;44.534;18.694;2022-09-20T04:22:46;138.20;;;28.10;;
25824;SDS011;13658;44.534;18.694;2022-09-20T04:25:34;79.32;;;26.90;;
25824;SDS011;13658;44.534;18.694;2022-09-20T04:28:14;94.82;;;26.02;;
25824;SDS011;13658;44.534;18.694;2022-09-20T04:33:50;89.88;;;22.33;;
25824;SDS011;13658;44.534;18.694;2022-09-20T04:39:22;88.53;;;28.70;;
25824;SDS011;13658;44.534;18.694;2022-09-20T05:05:15;48.22;;;17.98;;
25824;SDS011;13658;44.534;18.694;2022-09-20T05:08:10;59.72;;;21.88;;
25824;SDS011;13658;44.534;18.694;2022-09-20T05:16:45;47.00;;;19.90;;
25824;SDS011;13658;44.534;18.694;2022-09-20T05:25:38;43.75;;;17.63;;
25824;SDS011;13658;44.534;18.694;2022-09-20T05:28:52;37.75;;;18.25;;
25824;SDS011;13658;44.534;18.694;2022-09-20T05:36:55;35.25;;;17.38;;
25824;SDS011;13658;44.534;18.694;2022-09-20T05:42:36;40.72;;;18.77;;
25824;SDS011;13658;44.534;18.694;2022-09-20T06:02:28;41.58;;;20.88;;
25824;SDS011;13658;44.534;18.694;2022-09-20T06:05:02;39.45;;;19.63;;
25824;SDS011;13658;44.534;18.694;2022-09-20T06:10:21;26.63;;;15.15;;
25824;SDS011;13658;44.534;18.694;2022-09-20T06:15:31;29.08;;;16.27;;
25824;SDS011;13658;44.534;18.694;2022-09-20T06:18:08;31.25;;;17.65;;
25824;SDS011;13658;44.534;18.694;2022-09-20T06:23:19;41.78;;;21.48;;
25824;SDS011;13658;44.534;18.694;2022-09-20T06:25:47;43.33;;;22.77;;
25824;SDS011;13658;44.534;18.694;2022-09-20T06:28:29;52.33;;;28.17;;
25824;SDS011;13658;44.534;18.694;2022-09-20T06:31:06;61.55;;;30.92;;
25824;SDS011;13658;44.534;18.694;2022-09-20T06:33:38;109.43;;;56.58;;
25824;SDS011;13658;44.534;18.694;2022-09-20T06:36:30;76.43;;;43.85;;
25824;SDS011;13658;44.534;18.694;2022-09-20T06:42:16;46.88;;;33.40;;
25824;SDS011;13658;44.534;18.694;2022-09-20T06:44:42;43.60;;;32.15;;
25824;SDS011;13658;44.534;18.694;2022-09-20T06:47:09;38.28;;;28.15;;
25824;SDS011;13658;44.534;18.694;2022-09-20T06:49:35;34.20;;;22.63;;
25824;SDS011;13658;44.534;18.694;2022-09-20T06:52:05;30.60;;;19.17;;
25824;SDS011;13658;44.534;18.694;2022-09-20T06:54:32;30.38;;;17.27;;
25824;SDS011;13658;44.534;18.694;2022-09-20T06:56:59;25.15;;;15.15;;
25824;SDS011;13658;44.534;18.694;2022-09-20T06:59:28;25.33;;;14.88;;
25824;SDS011;13658;44.534;18.694;2022-09-20T07:01:54;22.02;;;11.50;;
25824;SDS011;13658;44.534;18.694;2022-09-20T07:04:20;16.05;;;10.75;;
25824;SDS011;13658;44.534;18.694;2022-09-20T07:06:47;17.30;;;11.65;;
25824;SDS011;13658;44.534;18.694;2022-09-20T07:09:13;17.45;;;12.38;;
25824;SDS011;13658;44.534;18.694;2022-09-20T07:11:39;17.50;;;11.95;;
25824;SDS011;13658;44.534;18.694;2022-09-20T07:14:05;16.27;;;11.73;;
25824;SDS011;13658;44.534;18.694;2022-09-20T07:16:32;21.55;;;13.52;;
25824;SDS011;13658;44.534;18.694;2022-09-20T07:18:58;20.25;;;12.68;;
25824;SDS011;13658;44.534;18.694;2022-09-20T07:21:24;24.92;;;15.52;;
25824;SDS011;13658;44.534;18.694;2022-09-20T07:23:50;36.55;;;20.92;;
25824;SDS011;13658;44.534;18.694;2022-09-20T07:26:22;28.27;;;17.73;;
25824;SDS011;13658;44.534;18.694;2022-09-20T07:28:50;23.98;;;16.58;;
25824;SDS011;13658;44.534;18.694;2022-09-20T07:31:17;22.83;;;14.60;;
25824;SDS011;13658;44.534;18.694;2022-09-20T07:33:45;127.78;;;70.70;;
25824;SDS011;13658;44.534;18.694;2022-09-20T07:36:11;22.50;;;15.38;;
25824;SDS011;13658;44.534;18.694;2022-09-20T07:38:40;22.98;;;14.77;;
25824;SDS011;13658;44.534;18.694;2022-09-20T07:41:07;19.70;;;12.00;;
25824;SDS011;13658;44.534;18.694;2022-09-20T07:43:35;24.40;;;15.68;;
25824;SDS011;13658;44.534;18.694;2022-09-20T07:46:01;425.38;;;225.30;;
25824;SDS011;13658;44.534;18.694;2022-09-20T07:48:31;166.23;;;86.65;;
25824;SDS011;13658;44.534;18.694;2022-09-20T07:51:00;23.50;;;14.23;;
25824;SDS011;13658;44.534;18.694;2022-09-20T07:53:29;20.38;;;12.27;;
25824;SDS011;13658;44.534;18.694;2022-09-20T07:55:56;14.68;;;7.97;;
25824;SDS011;13658;44.534;18.694;2022-09-20T07:58:35;17.42;;;10.68;;
25824;SDS011;13658;44.534;18.694;2022-09-20T08:01:03;20.88;;;14.13;;
25824;SDS011;13658;44.534;18.694;2022-09-20T08:03:30;11.32;;;7.65;;
25824;SDS011;13658;44.534;18.694;2022-09-20T08:06:01;15.93;;;10.75;;
25824;SDS011;13658;44.534;18.694;2022-09-20T08:08:33;16.30;;;10.90;;
25824;SDS011;13658;44.534;18.694;2022-09-20T08:11:01;12.73;;;8.13;;
25824;SDS011;13658;44.534;18.694;2022-09-20T08:13:35;13.77;;;8.75;;
25824;SDS011;13658;44.534;18.694;2022-09-20T08:16:03;11.52;;;7.20;;
25824;SDS011;13658;44.534;18.694;2022-09-20T08:18:32;19.02;;;11.88;;
25824;SDS011;13658;44.534;18.694;2022-09-20T08:21:06;17.33;;;10.38;;
25824;SDS011;13658;44.534;18.694;2022-09-20T08:23:34;15.82;;;10.43;;
25824;SDS011;13658;44.534;18.694;2022-09-20T08:26:05;17.33;;;11.18;;
25824;SDS011;13658;44.534;18.694;2022-09-20T08:28:33;25.27;;;11.15;;
25824;SDS011;13658;44.534;18.694;2022-09-20T08:31:05;17.05;;;9.35;;
25824;SDS011;13658;44.534;18.694;2022-09-20T08:33:34;16.08;;;8.43;;
25824;SDS011;13658;44.534;18.694;2022-09-20T08:36:05;15.52;;;11.48;;
25824;SDS011;13658;44.534;18.694;2022-09-20T08:38:33;16.98;;;9.80;;
25824;SDS011;13658;44.534;18.694;2022-09-20T08:41:04;12.85;;;6.95;;
25824;SDS011;13658;44.534;18.694;2022-09-20T08:46:34;15.10;;;7.70;;
25824;SDS011;13658;44.534;18.694;2022-09-20T08:49:04;17.42;;;10.77;;
25824;SDS011;13658;44.534;18.694;2022-09-20T08:51:38;13.15;;;8.13;;
25824;SDS011;13658;44.534;18.694;2022-09-20T08:54:05;12.10;;;8.30;;
25824;SDS011;13658;44.534;18.694;2022-09-20T08:59:07;14.68;;;8.50;;
25824;SDS011;13658;44.534;18.694;2022-09-20T09:01:41;15.68;;;9.32;;
25824;SDS011;13658;44.534;18.694;2022-09-20T09:06:44;13.13;;;8.52;;
25824;SDS011;13658;44.534;18.694;2022-09-20T09:09:21;13.93;;;9.95;;
25824;SDS011;13658;44.534;18.694;2022-09-20T09:11:49;14.18;;;9.77;;
25824;SDS011;13658;44.534;18.694;2022-09-20T09:14:24;16.80;;;11.10;;
25824;SDS011;13658;44.534;18.694;2022-09-20T09:17:10;15.95;;;9.73;;
25824;SDS011;13658;44.534;18.694;2022-09-20T09:19:42;22.05;;;13.52;;
25824;SDS011;13658;44.534;18.694;2022-09-20T09:22:13;18.73;;;13.77;;
25824;SDS011;13658;44.534;18.694;2022-09-20T09:24:44;17.20;;;11.55;;
25824;SDS011;13658;44.534;18.694;2022-09-20T09:27:17;19.00;;;11.60;;
25824;SDS011;13658;44.534;18.694;2022-09-20T09:29:48;15.13;;;11.10;;
25824;SDS011;13658;44.534;18.694;2022-09-20T09:32:33;17.80;;;13.07;;
25824;SDS011;13658;44.534;18.694;2022-09-20T09:38:00;17.00;;;11.13;;
25824;SDS011;13658;44.534;18.694;2022-09-20T09:40:27;12.18;;;9.98;;
25824;SDS011;13658;44.534;18.694;2022-09-20T09:42:56;13.32;;;9.55;;
25824;SDS011;13658;44.534;18.694;2022-09-20T09:47:52;13.77;;;9.18;;
25824;SDS011;13658;44.534;18.694;2022-09-20T09:50:26;10.57;;;7.72;;
25824;SDS011;13658;44.534;18.694;2022-09-20T09:53:04;21.92;;;12.93;;
25824;SDS011;13658;44.534;18.694;2022-09-20T10:04:16;14.02;;;9.57;;
25824;SDS011;13658;44.534;18.694;2022-09-20T10:12:38;12.88;;;8.88;;
25824;SDS011;13658;44.534;18.694;2022-09-20T10:18:09;9.10;;;7.00;;
25824;SDS011;13658;44.534;18.694;2022-09-20T10:23:10;9.45;;;5.68;;
25824;SDS011;13658;44.534;18.694;2022-09-20T10:36:59;7.40;;;4.78;;
25824;SDS011;13658;44.534;18.694;2022-09-20T10:39:36;12.60;;;7.20;;
25824;SDS011;13658;44.534;18.694;2022-09-20T10:50:47;8.50;;;5.25;;
25824;SDS011;13658;44.534;18.694;2022-09-20T10:59:18;7.00;;;4.45;;
25824;SDS011;13658;44.534;18.694;2022-09-20T11:02:05;7.38;;;5.40;;
25824;SDS011;13658;44.534;18.694;2022-09-20T11:04:55;5.20;;;3.80;;
25824;SDS011;13658;44.534;18.694;2022-09-20T11:07:45;7.95;;;4.70;;
25824;SDS011;13658;44.534;18.694;2022-09-20T11:10:19;3.28;;;2.65;;
25824;SDS011;13658;44.534;18.694;2022-09-20T11:16:17;3.85;;;3.05;;
25824;SDS011;13658;44.534;18.694;2022-09-20T11:26:52;8.93;;;5.07;;
25824;SDS011;13658;44.534;18.694;2022-09-20T11:29:29;9.18;;;6.40;;
25824;SDS011;13658;44.534;18.694;2022-09-20T11:32:17;13.75;;;8.90;;
25824;SDS011;13658;44.534;18.694;2022-09-20T11:34:50;17.13;;;10.98;;
25824;SDS011;13658;44.534;18.694;2022-09-20T11:37:24;9.45;;;5.43;;
25824;SDS011;13658;44.534;18.694;2022-09-20T11:39:59;6.70;;;3.90;;
25824;SDS011;13658;44.534;18.694;2022-09-20T11:42:31;10.05;;;5.13;;
25824;SDS011;13658;44.534;18.694;2022-09-20T11:45:00;10.85;;;7.18;;
25824;SDS011;13658;44.534;18.694;2022-09-20T11:47:34;10.13;;;6.05;;
25824;SDS011;13658;44.534;18.694;2022-09-20T11:50:10;7.45;;;4.80;;
25824;SDS011;13658;44.534;18.694;2022-09-20T11:58:05;6.65;;;4.00;;
25824;SDS011;13658;44.534;18.694;2022-09-20T12:00:35;6.35;;;4.13;;
25824;SDS011;13658;44.534;18.694;2022-09-20T12:03:08;4.00;;;2.35;;
25824;SDS011;13658;44.534;18.694;2022-09-20T12:05:54;3.45;;;2.25;;
25824;SDS011;13658;44.534;18.694;2022-09-20T12:08:44;8.07;;;4.60;;
25824;SDS011;13658;44.534;18.694;2022-09-20T12:11:15;5.32;;;3.65;;
25824;SDS011;13658;44.534;18.694;2022-09-20T12:16:50;3.58;;;2.45;;
25824;SDS011;13658;44.534;18.694;2022-09-20T12:24:31;2.28;;;1.95;;
25824;SDS011;13658;44.534;18.694;2022-09-20T12:26:59;12.35;;;3.85;;
25824;SDS011;13658;44.534;18.694;2022-09-20T12:32:50;60.33;;;37.47;;
25824;SDS011;13658;44.534;18.694;2022-09-20T12:43:33;5.65;;;2.97;;
25824;SDS011;13658;44.534;18.694;2022-09-20T12:46:03;6.20;;;3.58;;
25824;SDS011;13658;44.534;18.694;2022-09-20T12:48:31;5.35;;;3.15;;
25824;SDS011;13658;44.534;18.694;2022-09-20T12:51:02;7.15;;;3.30;;
25824;SDS011;13658;44.534;18.694;2022-09-20T12:54:00;6.68;;;3.78;;
25824;SDS011;13658;44.534;18.694;2022-09-20T12:56:35;8.15;;;5.28;;
25824;SDS011;13658;44.534;18.694;2022-09-20T12:59:05;8.48;;;5.50;;
25824;SDS011;13658;44.534;18.694;2022-09-20T13:01:46;7.15;;;4.28;;
25824;SDS011;13658;44.534;18.694;2022-09-20T13:10:15;3.22;;;2.33;;
25824;SDS011;13658;44.534;18.694;2022-09-20T13:13:20;7.85;;;3.30;;
25824;SDS011;13658;44.534;18.694;2022-09-20T13:15:55;6.05;;;3.63;;
25824;SDS011;13658;44.534;18.694;2022-09-20T13:18:22;6.47;;;3.60;;
25824;SDS011;13658;44.534;18.694;2022-09-20T13:20:51;5.38;;;3.10;;
25824;SDS011;13658;44.534;18.694;2022-09-20T13:23:26;5.30;;;3.25;;
25824;SDS011;13658;44.534;18.694;2022-09-20T13:25:54;16.23;;;9.05;;
25824;SDS011;13658;44.534;18.694;2022-09-20T13:28:55;10.95;;;5.60;;
25824;SDS011;13658;44.534;18.694;2022-09-20T13:33:46;4.28;;;2.90;;
25824;SDS011;13658;44.534;18.694;2022-09-20T13:36:12;4.32;;;2.88;;
25824;SDS011;13658;44.534;18.694;2022-09-20T13:38:38;7.30;;;4.20;;
25824;SDS011;13658;44.534;18.694;2022-09-20T13:41:09;7.28;;;3.53;;
25824;SDS011;13658;44.534;18.694;2022-09-20T13:46:15;7.03;;;3.65;;
25824;SDS011;13658;44.534;18.694;2022-09-20T13:48:46;9.93;;;4.45;;
25824;SDS011;13658;44.534;18.694;2022-09-20T13:53:43;5.18;;;3.45;;
25824;SDS011;13658;44.534;18.694;2022-09-20T13:58:54;8.68;;;4.35;;
25824;SDS011;13658;44.534;18.694;2022-09-20T14:01:35;10.02;;;5.63;;
25824;SDS011;13658;44.534;18.694;2022-09-20T14:04:06;7.03;;;4.13;;
25824;SDS011;13658;44.534;18.694;2022-09-20T14:06:37;9.68;;;4.53;;
25824;SDS011;13658;44.534;18.694;2022-09-20T14:09:04;11.30;;;6.80;;
25824;SDS011;13658;44.534;18.694;2022-09-20T14:11:32;12.73;;;6.88;;
25824;SDS011;13658;44.534;18.694;2022-09-20T14:13:59;12.68;;;6.95;;
25824;SDS011;13658;44.534;18.694;2022-09-20T14:16:30;12.70;;;6.88;;
25824;SDS011;13658;44.534;18.694;2022-09-20T14:19:04;9.48;;;6.25;;
25824;SDS011;13658;44.534;18.694;2022-09-20T14:21:34;12.10;;;5.97;;
25824;SDS011;13658;44.534;18.694;2022-09-20T14:24:04;11.13;;;7.00;;
25824;SDS011;13658;44.534;18.694;2022-09-20T14:26:40;13.20;;;7.70;;
25824;SDS011;13658;44.534;18.694;2022-09-20T14:32:44;16.77;;;9.20;;
25824;SDS011;13658;44.534;18.694;2022-09-20T14:37:31;17.42;;;10.25;;
25824;SDS011;13658;44.534;18.694;2022-09-20T14:40:02;16.42;;;11.13;;
25824;SDS011;13658;44.534;18.694;2022-09-20T14:45:05;20.60;;;12.63;;
25824;SDS011;13658;44.534;18.694;2022-09-20T14:47:48;22.63;;;14.65;;
25824;SDS011;13658;44.534;18.694;2022-09-20T14:53:01;25.83;;;15.02;;
25824;SDS011;13658;44.534;18.694;2022-09-20T14:55:29;17.55;;;11.77;;
25824;SDS011;13658;44.534;18.694;2022-09-20T14:58:01;18.60;;;11.70;;
25824;SDS011;13658;44.534;18.694;2022-09-20T15:03:27;13.88;;;7.70;;
25824;SDS011;13658;44.534;18.694;2022-09-20T15:05:57;6.18;;;3.50;;
25824;SDS011;13658;44.534;18.694;2022-09-20T15:08:24;6.13;;;1.95;;
25824;SDS011;13658;44.534;18.694;2022-09-20T15:10:50;2.60;;;1.65;;
25824;SDS011;13658;44.534;18.694;2022-09-20T15:13:16;2.92;;;1.70;;
25824;SDS011;13658;44.534;18.694;2022-09-20T15:15:43;4.57;;;2.30;;
25824;SDS011;13658;44.534;18.694;2022-09-20T15:18:21;4.45;;;1.77;;
25824;SDS011;13658;44.534;18.694;2022-09-20T15:20:51;1.98;;;1.58;;
25824;SDS011;13658;44.534;18.694;2022-09-20T15:23:18;3.35;;;1.77;;
25824;SDS011;13658;44.534;18.694;2022-09-20T15:25:44;3.42;;;2.53;;
25824;SDS011;13658;44.534;18.694;2022-09-20T15:28:14;2.03;;;1.33;;
25824;SDS011;13658;44.534;18.694;2022-09-20T15:30:42;4.63;;;3.15;;
25824;SDS011;13658;44.534;18.694;2022-09-20T15:33:09;3.53;;;2.20;;
25824;SDS011;13658;44.534;18.694;2022-09-20T15:35:36;3.45;;;2.20;;
25824;SDS011;13658;44.534;18.694;2022-09-20T15:38:02;3.85;;;2.25;;
25824;SDS011;13658;44.534;18.694;2022-09-20T15:40:29;4.35;;;2.33;;
25824;SDS011;13658;44.534;18.694;2022-09-20T15:42:56;3.95;;;2.53;;
25824;SDS011;13658;44.534;18.694;2022-09-20T15:45:23;6.80;;;2.90;;
25824;SDS011;13658;44.534;18.694;2022-09-20T15:47:51;9.43;;;6.28;;
25824;SDS011;13658;44.534;18.694;2022-09-20T15:50:19;7.32;;;4.20;;
25824;SDS011;13658;44.534;18.694;2022-09-20T15:52:47;9.95;;;6.38;;
25824;SDS011;13658;44.534;18.694;2022-09-20T15:55:16;8.98;;;5.13;;
25824;SDS011;13658;44.534;18.694;2022-09-20T15:57:43;13.60;;;11.55;;
25824;SDS011;13658;44.534;18.694;2022-09-20T16:00:09;8.32;;;5.18;;
25824;SDS011;13658;44.534;18.694;2022-09-20T16:02:36;7.57;;;4.20;;
25824;SDS011;13658;44.534;18.694;2022-09-20T16:05:02;5.07;;;3.10;;
25824;SDS011;13658;44.534;18.694;2022-09-20T16:07:28;8.35;;;4.13;;
25824;SDS011;13658;44.534;18.694;2022-09-20T16:09:54;18.33;;;9.55;;
25824;SDS011;13658;44.534;18.694;2022-09-20T16:12:22;12.00;;;7.00;;
25824;SDS011;13658;44.534;18.694;2022-09-20T16:14:49;12.27;;;7.72;;
25824;SDS011;13658;44.534;18.694;2022-09-20T16:17:16;14.38;;;8.48;;
25824;SDS011;13658;44.534;18.694;2022-09-20T16:19:42;19.40;;;10.20;;
25824;SDS011;13658;44.534;18.694;2022-09-20T16:22:11;21.23;;;12.38;;
25824;SDS011;13658;44.534;18.694;2022-09-20T16:24:37;19.33;;;11.13;;
25824;SDS011;13658;44.534;18.694;2022-09-20T16:27:04;19.50;;;12.52;;
25824;SDS011;13658;44.534;18.694;2022-09-20T16:29:31;25.92;;;15.98;;
25824;SDS011;13658;44.534;18.694;2022-09-20T16:31:58;25.95;;;15.82;;
25824;SDS011;13658;44.534;18.694;2022-09-20T16:34:28;24.67;;;16.10;;
25824;SDS011;13658;44.534;18.694;2022-09-20T16:37:00;42.30;;;21.88;;
25824;SDS011;13658;44.534;18.694;2022-09-20T16:39:38;59.58;;;33.58;;
25824;SDS011;13658;44.534;18.694;2022-09-20T16:42:06;48.65;;;26.20;;
25824;SDS011;13658;44.534;18.694;2022-09-20T16:44:36;37.33;;;21.73;;
25824;SDS011;13658;44.534;18.694;2022-09-20T16:47:08;33.92;;;20.13;;
25824;SDS011;13658;44.534;18.694;2022-09-20T16:49:36;34.60;;;20.90;;
25824;SDS011;13658;44.534;18.694;2022-09-20T16:52:03;40.35;;;22.58;;
25824;SDS011;13658;44.534;18.694;2022-09-20T16:54:30;50.17;;;25.77;;
25824;SDS011;13658;44.534;18.694;2022-09-20T16:56:56;42.97;;;25.70;;
25824;SDS011;13658;44.534;18.694;2022-09-20T16:59:22;43.03;;;25.13;;
25824;SDS011;13658;44.534;18.694;2022-09-20T17:01:48;39.67;;;23.08;;
25824;SDS011;13658;44.534;18.694;2022-09-20T17:04:15;37.83;;;22.08;;
25824;SDS011;13658;44.534;18.694;2022-09-20T17:06:43;43.03;;;24.13;;
25824;SDS011;13658;44.534;18.694;2022-09-20T17:09:10;43.10;;;24.42;;
25824;SDS011;13658;44.534;18.694;2022-09-20T17:11:40;43.78;;;24.63;;
25824;SDS011;13658;44.534;18.694;2022-09-20T17:14:11;65.50;;;36.47;;
25824;SDS011;13658;44.534;18.694;2022-09-20T17:16:38;70.28;;;38.60;;
25824;SDS011;13658;44.534;18.694;2022-09-20T17:19:06;73.43;;;40.95;;
25824;SDS011;13658;44.534;18.694;2022-09-20T17:21:41;82.50;;;41.63;;
25824;SDS011;13658;44.534;18.694;2022-09-20T17:24:13;78.43;;;40.30;;
25824;SDS011;13658;44.534;18.694;2022-09-20T17:26:41;93.72;;;47.63;;
25824;SDS011;13658;44.534;18.694;2022-09-20T17:29:09;72.32;;;37.00;;
25824;SDS011;13658;44.534;18.694;2022-09-20T17:31:39;59.25;;;30.48;;
25824;SDS011;13658;44.534;18.694;2022-09-20T17:34:11;36.22;;;20.40;;
25824;SDS011;13658;44.534;18.694;2022-09-20T17:36:43;30.90;;;16.70;;
25824;SDS011;13658;44.534;18.694;2022-09-20T17:39:11;29.50;;;15.70;;
25824;SDS011;13658;44.534;18.694;2022-09-20T17:41:38;31.90;;;19.80;;
25824;SDS011;13658;44.534;18.694;2022-09-20T17:44:06;29.27;;;15.77;;
25824;SDS011;13658;44.534;18.694;2022-09-20T17:46:37;27.08;;;16.38;;
25824;SDS011;13658;44.534;18.694;2022-09-20T17:49:05;37.20;;;21.60;;
25824;SDS011;13658;44.534;18.694;2022-09-20T17:51:34;40.00;;;23.08;;
25824;SDS011;13658;44.534;18.694;2022-09-20T17:54:01;42.15;;;23.90;;
25824;SDS011;13658;44.534;18.694;2022-09-20T17:56:28;69.78;;;38.33;;
25824;SDS011;13658;44.534;18.694;2022-09-20T17:58:59;84.22;;;47.33;;
25824;SDS011;13658;44.534;18.694;2022-09-20T18:01:27;92.68;;;48.78;;
25824;SDS011;13658;44.534;18.694;2022-09-20T18:03:55;98.50;;;49.75;;
25824;SDS011;13658;44.534;18.694;2022-09-20T18:06:24;76.38;;;40.95;;
25824;SDS011;13658;44.534;18.694;2022-09-20T18:08:56;82.28;;;42.72;;
25824;SDS011;13658;44.534;18.694;2022-09-20T18:11:28;81.25;;;43.97;;
25824;SDS011;13658;44.534;18.694;2022-09-20T18:13:56;83.82;;;46.90;;
25824;SDS011;13658;44.534;18.694;2022-09-20T18:16:22;88.82;;;47.05;;
25824;SDS011;13658;44.534;18.694;2022-09-20T18:18:48;90.65;;;50.05;;
25824;SDS011;13658;44.534;18.694;2022-09-20T18:21:15;91.35;;;48.28;;
25824;SDS011;13658;44.534;18.694;2022-09-20T18:23:43;92.05;;;49.42;;
25824;SDS011;13658;44.534;18.694;2022-09-20T18:26:13;93.15;;;50.08;;
25824;SDS011;13658;44.534;18.694;2022-09-20T18:28:49;88.00;;;49.42;;
25824;SDS011;13658;44.534;18.694;2022-09-20T18:31:29;91.70;;;51.25;;
25824;SDS011;13658;44.534;18.694;2022-09-20T18:34:00;86.10;;;47.22;;
25824;SDS011;13658;44.534;18.694;2022-09-20T18:36:33;80.93;;;43.05;;
25824;SDS011;13658;44.534;18.694;2022-09-20T18:39:00;76.40;;;41.53;;
25824;SDS011;13658;44.534;18.694;2022-09-20T18:41:28;73.03;;;42.22;;
25824;SDS011;13658;44.534;18.694;2022-09-20T18:43:57;66.88;;;38.63;;
25824;SDS011;13658;44.534;18.694;2022-09-20T18:46:23;67.75;;;37.30;;
25824;SDS011;13658;44.534;18.694;2022-09-20T18:48:52;67.13;;;38.00;;
25824;SDS011;13658;44.534;18.694;2022-09-20T18:51:19;75.38;;;39.78;;
25824;SDS011;13658;44.534;18.694;2022-09-20T18:53:46;73.10;;;39.15;;
25824;SDS011;13658;44.534;18.694;2022-09-20T18:58:52;67.68;;;37.45;;
25824;SDS011;13658;44.534;18.694;2022-09-20T19:07:15;63.45;;;35.15;;
25824;SDS011;13658;44.534;18.694;2022-09-20T19:10:09;63.90;;;34.20;;
25824;SDS011;13658;44.534;18.694;2022-09-20T19:13:03;63.38;;;36.85;;
25824;SDS011;13658;44.534;18.694;2022-09-20T19:24:14;74.43;;;42.67;;
25824;SDS011;13658;44.534;18.694;2022-09-20T19:26:46;70.50;;;40.50;;
25824;SDS011;13658;44.534;18.694;2022-09-20T19:31:46;94.32;;;51.90;;
25824;SDS011;13658;44.534;18.694;2022-09-20T19:34:35;105.20;;;55.53;;
25824;SDS011;13658;44.534;18.694;2022-09-20T19:47:32;103.97;;;55.15;;
25824;SDS011;13658;44.534;18.694;2022-09-20T19:50:30;82.20;;;46.20;;
25824;SDS011;13658;44.534;18.694;2022-09-20T19:53:09;69.55;;;40.63;;
25824;SDS011;13658;44.534;18.694;2022-09-20T19:55:46;69.32;;;40.53;;
25824;SDS011;13658;44.534;18.694;2022-09-20T19:58:15;73.38;;;41.50;;
25824;SDS011;13658;44.534;18.694;2022-09-20T20:00:42;78.85;;;44.80;;
25824;SDS011;13658;44.534;18.694;2022-09-20T20:03:12;105.60;;;51.92;;
25824;SDS011;13658;44.534;18.694;2022-09-20T20:05:41;89.78;;;49.28;;
25824;SDS011;13658;44.534;18.694;2022-09-20T20:22:24;56.20;;;28.90;;
25824;SDS011;13658;44.534;18.694;2022-09-20T20:25:36;47.90;;;26.10;;
25824;SDS011;13658;44.534;18.694;2022-09-20T20:27:59;49.40;;;26.67;;
25824;SDS011;13658;44.534;18.694;2022-09-20T20:30:25;49.08;;;24.38;;
25824;SDS011;13658;44.534;18.694;2022-09-20T20:32:54;41.00;;;22.77;;
25824;SDS011;13658;44.534;18.694;2022-09-20T20:35:24;29.55;;;16.52;;
25824;SDS011;13658;44.534;18.694;2022-09-20T20:37:51;18.73;;;10.30;;
25824;SDS011;13658;44.534;18.694;2022-09-20T20:40:17;15.65;;;8.93;;
25824;SDS011;13658;44.534;18.694;2022-09-20T20:42:44;13.27;;;7.85;;